createdAt,value
2023-01-29T00:01:11.406Z,7.01
2023-01-29T00:03:40.311Z,7.00
2023-01-29T00:06:09.751Z,7.15
2023-01-29T00:08:38.104Z,7.23
2023-01-29T00:11:08.325Z,7.31
2023-01-29T00:13:36.561Z,7.02
2023-01-29T00:16:04.343Z,7.27
2023-01-29T00:18:31.847Z,7.16
2023-01-29T00:21:00.390Z,7.06
2023-01-29T00:23:27.445Z,7.10
2023-01-29T00:25:54.663Z,7.11
2023-01-29T00:28:21.863Z,7.14
2023-01-29T00:30:48.966Z,7.05
2023-01-29T00:33:16.088Z,7.18
2023-01-29T00:35:43.227Z,6.62
2023-01-29T00:38:11.884Z,6.85
2023-01-29T00:40:40.164Z,6.94
2023-01-29T00:43:07.305Z,6.94
2023-01-29T00:45:34.906Z,7.15
2023-01-29T00:48:02.060Z,7.17
2023-01-29T00:50:29.864Z,7.03
2023-01-29T00:52:57.063Z,7.06
2023-01-29T00:55:25.743Z,6.93
2023-01-29T00:57:52.824Z,6.90
2023-01-29T01:00:21.607Z,6.98
2023-01-29T01:02:48.789Z,7.13
2023-01-29T01:05:20.192Z,7.03
2023-01-29T01:07:48.981Z,6.96
2023-01-29T01:10:19.200Z,7.06
2023-01-29T01:12:49.267Z,7.11
2023-01-29T01:15:17.165Z,7.00
2023-01-29T01:17:44.317Z,7.05
2023-01-29T01:20:12.778Z,7.17
2023-01-29T01:22:39.966Z,7.17
2023-01-29T01:25:07.644Z,7.19
2023-01-29T01:27:34.992Z,7.03
2023-01-29T01:30:04.424Z,7.14
2023-01-29T01:32:31.563Z,6.95
2023-01-29T01:34:58.627Z,6.74
2023-01-29T01:37:25.743Z,6.82
2023-01-29T01:39:52.864Z,6.99
2023-01-29T01:42:20.025Z,7.06
2023-01-29T01:44:56.867Z,6.97
2023-01-29T01:47:31.022Z,7.02
2023-01-29T01:50:05.685Z,6.94
2023-01-29T01:52:33.742Z,7.06
2023-01-29T01:55:02.023Z,6.98
2023-01-29T01:57:32.367Z,7.00
2023-01-29T02:00:05.063Z,7.01
2023-01-29T02:02:33.736Z,7.04
2023-01-29T02:05:00.935Z,6.96
2023-01-29T02:07:28.083Z,7.11
2023-01-29T02:10:05.836Z,7.09
2023-01-29T02:12:34.162Z,7.01
2023-01-29T02:15:02.184Z,7.09
2023-01-29T02:17:29.417Z,7.31
2023-01-29T02:20:10.543Z,7.39
2023-01-29T02:23:08.526Z,7.30
2023-01-29T02:26:19.262Z,7.20
2023-01-29T02:28:59.043Z,7.00
2023-01-29T02:31:35.115Z,7.24
2023-01-29T02:34:17.483Z,7.20
2023-01-29T02:36:51.467Z,7.29
2023-01-29T02:39:29.663Z,7.38
2023-01-29T02:42:07.384Z,7.17
2023-01-29T02:44:42.584Z,7.47
2023-01-29T02:47:19.226Z,7.66
2023-01-29T02:49:52.999Z,7.79
2023-01-29T02:52:25.984Z,7.69
2023-01-29T02:54:59.602Z,7.80
2023-01-29T02:57:33.026Z,7.64
2023-01-29T03:00:10.094Z,7.81
2023-01-29T03:02:43.318Z,7.90
2023-01-29T03:05:15.705Z,8.03
2023-01-29T03:07:56.735Z,8.03
2023-01-29T03:10:30.022Z,8.02
2023-01-29T03:13:03.462Z,7.83
2023-01-29T03:15:39.845Z,7.87
2023-01-29T03:18:12.625Z,8.10
2023-01-29T03:20:46.102Z,8.13
2023-01-29T03:23:18.944Z,7.89
2023-01-29T03:25:46.495Z,8.03
2023-01-29T03:28:18.244Z,8.28
2023-01-29T03:30:51.955Z,8.03
2023-01-29T03:33:24.726Z,8.03
2023-01-29T03:35:58.728Z,8.16
2023-01-29T03:38:26.003Z,8.14
2023-01-29T03:40:59.719Z,8.12
2023-01-29T03:43:36.404Z,8.17
2023-01-29T03:46:11.666Z,8.16
2023-01-29T03:48:50.980Z,8.09
2023-01-29T03:51:28.664Z,8.07
2023-01-29T03:54:07.740Z,8.17
2023-01-29T03:56:45.665Z,8.25
2023-01-29T03:59:26.344Z,8.14
2023-01-29T04:01:58.282Z,8.06
2023-01-29T04:04:29.264Z,8.16
2023-01-29T04:07:04.423Z,8.21
2023-01-29T04:09:39.046Z,8.23
2023-01-29T04:12:08.719Z,8.17
2023-01-29T04:14:37.508Z,8.27
2023-01-29T04:17:13.186Z,8.28
2023-01-29T04:19:41.604Z,8.16
2023-01-29T04:22:17.691Z,8.13
2023-01-29T04:24:45.765Z,8.33
2023-01-29T04:27:26.423Z,8.21
2023-01-29T04:30:17.645Z,8.25
2023-01-29T04:33:03.151Z,8.37
2023-01-29T04:35:37.142Z,8.26
2023-01-29T04:38:15.414Z,8.15
2023-01-29T04:40:51.365Z,8.24
2023-01-29T04:43:28.241Z,8.40
2023-01-29T04:46:12.130Z,8.48
2023-01-29T04:49:00.493Z,8.38
2023-01-29T04:51:43.627Z,8.36
2023-01-29T04:54:22.741Z,8.41
2023-01-29T04:56:57.323Z,8.40
2023-01-29T04:59:33.701Z,8.37
2023-01-29T05:02:02.412Z,8.38
2023-01-29T05:04:35.885Z,8.07
2023-01-29T05:07:07.763Z,7.97
2023-01-29T05:09:38.031Z,8.00
2023-01-29T05:12:09.444Z,8.09
2023-01-29T05:14:40.002Z,8.13
2023-01-29T05:17:14.810Z,8.12
2023-01-29T05:19:44.022Z,8.27
2023-01-29T05:22:16.159Z,8.25
2023-01-29T05:24:43.337Z,8.30
2023-01-29T05:27:15.622Z,8.35
2023-01-29T05:29:47.157Z,8.37
2023-01-29T05:32:16.140Z,8.36
2023-01-29T05:34:44.783Z,8.39
2023-01-29T05:37:11.862Z,8.44
2023-01-29T05:39:39.002Z,8.35
2023-01-29T05:42:06.242Z,8.31
2023-01-29T05:44:33.450Z,8.03
2023-01-29T05:47:00.583Z,8.28
2023-01-29T05:49:27.674Z,8.24
2023-01-29T05:51:56.383Z,8.13
2023-01-29T05:54:23.548Z,8.26
2023-01-29T05:56:50.722Z,8.15
2023-01-29T05:59:17.842Z,8.12
2023-01-29T06:01:45.164Z,8.08
2023-01-29T06:04:12.325Z,8.20
2023-01-29T06:06:39.426Z,8.20
2023-01-29T06:09:10.183Z,8.15
2023-01-29T06:11:37.314Z,8.17
2023-01-29T06:14:04.402Z,8.20
2023-01-29T06:16:31.767Z,8.13
2023-01-29T06:18:58.942Z,8.24
2023-01-29T06:21:26.125Z,8.31
2023-01-29T06:23:53.493Z,8.15
2023-01-29T06:26:22.245Z,8.13
2023-01-29T06:28:50.444Z,8.11
2023-01-29T06:31:36.895Z,8.10
2023-01-29T06:34:05.624Z,8.21
2023-01-29T06:36:32.906Z,8.22
2023-01-29T06:39:00.191Z,8.18
2023-01-29T06:41:28.887Z,8.21
2023-01-29T06:43:56.082Z,8.32
2023-01-29T06:46:23.196Z,8.48
2023-01-29T06:48:50.340Z,8.48
2023-01-29T06:51:17.536Z,8.38
2023-01-29T06:53:46.265Z,8.35
2023-01-29T06:56:13.939Z,8.43
2023-01-29T06:58:42.543Z,8.47
2023-01-29T07:01:17.541Z,8.42
2023-01-29T07:03:52.826Z,8.62
2023-01-29T07:06:20.243Z,8.39
2023-01-29T07:08:47.410Z,8.49
2023-01-29T07:11:14.474Z,8.46
2023-01-29T07:13:43.043Z,8.50
2023-01-29T07:16:10.613Z,8.34
2023-01-29T07:18:37.926Z,8.55
2023-01-29T07:21:06.326Z,8.46
2023-01-29T07:23:33.491Z,8.51
2023-01-29T07:26:01.845Z,8.42
2023-01-29T07:28:29.304Z,8.44
2023-01-29T07:30:58.899Z,8.37
2023-01-29T07:33:26.924Z,8.28
2023-01-29T07:35:54.106Z,8.14
2023-01-29T07:38:21.247Z,8.21
2023-01-29T07:40:48.545Z,8.02
2023-01-29T07:43:15.844Z,7.99
2023-01-29T07:45:43.045Z,8.02
2023-01-29T07:48:13.183Z,7.96
2023-01-29T07:50:41.228Z,7.94
2023-01-29T07:53:14.111Z,7.97
2023-01-29T07:55:43.925Z,8.02
2023-01-29T07:58:11.650Z,8.16
2023-01-29T08:00:39.135Z,8.17
2023-01-29T08:03:10.544Z,8.16
2023-01-29T08:05:39.203Z,8.26
2023-01-29T08:08:07.812Z,8.03
2023-01-29T08:10:36.106Z,8.09
2023-01-29T08:13:04.812Z,8.25
2023-01-29T08:15:36.047Z,8.34
2023-01-29T08:18:05.156Z,8.25
2023-01-29T08:20:32.386Z,8.16
2023-01-29T08:23:03.749Z,8.20
2023-01-29T08:25:30.936Z,8.34
2023-01-29T08:27:59.599Z,8.35
2023-01-29T08:30:28.351Z,8.42
2023-01-29T08:32:55.783Z,8.49
2023-01-29T08:35:23.344Z,9.72
2023-01-29T08:37:54.626Z,10.72
2023-01-29T08:40:24.106Z,11.46
2023-01-29T08:42:51.227Z,12.10
2023-01-29T08:45:18.644Z,12.46
2023-01-29T08:47:46.786Z,13.02
2023-01-29T08:50:14.430Z,13.26
2023-01-29T08:52:41.782Z,13.48
2023-01-29T08:55:09.762Z,13.45
2023-01-29T08:57:39.298Z,12.62
2023-01-29T09:00:09.307Z,12.13
2023-01-29T09:02:36.504Z,11.57
2023-01-29T09:05:04.259Z,11.03
2023-01-29T09:07:31.445Z,10.66
2023-01-29T09:09:58.704Z,10.47
2023-01-29T09:12:25.905Z,10.29
2023-01-29T09:14:54.544Z,10.07
2023-01-29T09:17:21.713Z,9.88
2023-01-29T09:19:48.987Z,9.75
2023-01-29T09:22:16.187Z,9.62
2023-01-29T09:24:43.381Z,9.58
2023-01-29T09:27:10.503Z,9.47
2023-01-29T09:29:38.247Z,9.48
2023-01-29T09:32:07.585Z,9.37
2023-01-29T09:34:34.744Z,9.30
2023-01-29T09:37:01.945Z,9.28
2023-01-29T09:39:29.719Z,9.33
2023-01-29T09:42:08.346Z,9.33
2023-01-29T09:44:51.244Z,9.21
2023-01-29T09:47:24.373Z,9.10
2023-01-29T09:49:56.985Z,9.08
2023-01-29T09:52:30.423Z,9.01
2023-01-29T09:55:05.117Z,9.11
2023-01-29T09:57:41.744Z,9.05
2023-01-29T10:00:16.485Z,9.45
2023-01-29T10:03:15.864Z,9.29
2023-01-29T10:06:04.410Z,9.23
2023-01-29T10:09:03.043Z,9.24
2023-01-29T10:11:43.952Z,9.19
2023-01-29T10:14:22.350Z,9.18
2023-01-29T10:17:07.976Z,9.12
2023-01-29T10:20:01.386Z,9.06
2023-01-29T10:22:44.660Z,9.06
2023-01-29T10:25:16.230Z,9.07
2023-01-29T10:27:50.076Z,9.02
2023-01-29T10:30:30.950Z,9.01
2023-01-29T10:33:02.943Z,8.97
2023-01-29T10:35:37.735Z,9.07
2023-01-29T10:38:24.472Z,9.16
2023-01-29T10:41:05.603Z,9.07
2023-01-29T10:43:44.685Z,8.98
2023-01-29T10:46:25.523Z,9.00
2023-01-29T10:49:08.563Z,9.08
2023-01-29T10:51:56.827Z,8.98
2023-01-29T10:54:51.865Z,9.00
2023-01-29T10:57:41.905Z,9.08
2023-01-29T11:00:17.423Z,9.14
2023-01-29T11:02:46.089Z,9.15
2023-01-29T11:05:23.685Z,9.20
2023-01-29T11:08:03.523Z,9.08
2023-01-29T11:10:37.623Z,9.11
2023-01-29T11:13:06.068Z,9.10
2023-01-29T11:15:34.064Z,9.06
2023-01-29T11:18:03.005Z,9.16
2023-01-29T11:20:32.071Z,8.99
2023-01-29T11:23:00.747Z,9.11
2023-01-29T11:25:28.950Z,8.86
2023-01-29T11:27:58.885Z,8.98
2023-01-29T11:30:29.060Z,9.03
2023-01-29T11:33:09.048Z,9.10
2023-01-29T11:35:37.333Z,9.11
2023-01-29T11:38:19.863Z,9.09
2023-01-29T11:40:47.725Z,9.09
2023-01-29T11:43:28.163Z,9.07
2023-01-29T11:45:58.906Z,9.03
2023-01-29T11:48:39.730Z,9.16
2023-01-29T11:51:10.323Z,9.23
2023-01-29T11:53:43.665Z,9.29
2023-01-29T11:56:23.417Z,9.30
2023-01-29T11:58:57.739Z,9.30
2023-01-29T12:01:33.404Z,9.23
2023-01-29T12:04:02.906Z,9.25
2023-01-29T12:06:36.566Z,9.21
2023-01-29T12:09:17.307Z,9.27
2023-01-29T12:11:45.035Z,9.33
2023-01-29T12:14:28.173Z,9.36
2023-01-29T12:17:01.388Z,9.36
2023-01-29T12:19:36.764Z,9.46
2023-01-29T12:22:12.217Z,9.41
2023-01-29T12:24:50.265Z,9.19
2023-01-29T12:27:25.444Z,9.31
2023-01-29T12:30:02.163Z,8.84
2023-01-29T12:32:41.143Z,9.01
2023-01-29T12:35:20.284Z,8.88
2023-01-29T12:37:58.452Z,9.00
2023-01-29T12:40:33.504Z,9.10
2023-01-29T12:43:12.026Z,9.06
2023-01-29T12:45:43.385Z,9.27
2023-01-29T12:48:20.104Z,9.37
2023-01-29T12:50:50.283Z,9.48
2023-01-29T12:53:32.765Z,9.39
2023-01-29T12:56:11.762Z,9.56
2023-01-29T12:58:46.370Z,9.55
2023-01-29T13:01:24.394Z,9.60
2023-01-29T13:03:59.495Z,9.57
2023-01-29T13:06:38.486Z,9.53
2023-01-29T13:09:13.840Z,9.40
2023-01-29T13:11:55.824Z,9.53
2023-01-29T13:14:27.864Z,9.57
2023-01-29T13:17:09.424Z,9.92
2023-01-29T13:19:42.404Z,11.51
2023-01-29T13:22:21.006Z,11.19
2023-01-29T13:25:04.033Z,10.74
2023-01-29T13:27:39.798Z,10.41
2023-01-29T13:30:23.444Z,10.27
2023-01-29T13:32:55.793Z,10.06
2023-01-29T13:35:24.307Z,9.98
2023-01-29T13:37:56.945Z,9.89
2023-01-29T13:40:29.444Z,9.88
2023-01-29T13:43:02.075Z,9.83
2023-01-29T13:45:45.128Z,9.86
2023-01-29T13:48:26.470Z,9.80
2023-01-29T13:50:59.246Z,9.74
2023-01-29T13:53:31.712Z,9.75
2023-01-29T13:56:34.251Z,9.78
2023-01-29T13:59:08.745Z,9.73
2023-01-29T14:02:02.996Z,9.80
2023-01-29T14:04:33.365Z,9.82
2023-01-29T14:07:23.485Z,9.69
2023-01-29T14:10:28.544Z,9.68
2023-01-29T14:13:29.716Z,9.68
2023-01-29T14:16:36.790Z,9.69
2023-01-29T14:19:07.890Z,9.62
2023-01-29T14:21:40.212Z,9.58
2023-01-29T14:24:22.344Z,9.53
2023-01-29T14:26:57.074Z,9.43
2023-01-29T14:29:35.025Z,9.45
2023-01-29T14:32:21.728Z,9.50
2023-01-29T14:34:57.144Z,9.40
2023-01-29T14:37:35.658Z,9.41
2023-01-29T14:40:21.066Z,9.43
2023-01-29T14:43:01.610Z,9.50
2023-01-29T14:45:33.066Z,9.52
2023-01-29T14:48:24.495Z,9.52
2023-01-29T14:51:05.663Z,9.61
2023-01-29T14:53:55.038Z,9.57
2023-01-29T14:56:35.488Z,9.56
2023-01-29T14:59:16.647Z,9.60
2023-01-29T15:01:52.486Z,9.61
2023-01-29T15:04:28.641Z,9.60
2023-01-29T15:07:07.350Z,9.62
2023-01-29T15:09:43.928Z,9.67
2023-01-29T15:12:26.245Z,9.60
2023-01-29T15:15:17.338Z,9.52
2023-01-29T15:17:56.445Z,9.54
2023-01-29T15:20:32.706Z,9.55
2023-01-29T15:23:04.208Z,9.49
2023-01-29T15:25:49.110Z,9.43
2023-01-29T15:28:16.504Z,9.37
2023-01-29T15:30:44.622Z,9.37
2023-01-29T15:33:15.496Z,9.27
2023-01-29T15:35:43.658Z,9.31
2023-01-29T15:38:19.462Z,9.44
2023-01-29T15:40:54.543Z,9.58
2023-01-29T15:43:23.772Z,9.61
2023-01-29T15:45:53.749Z,9.69
2023-01-29T15:48:28.347Z,9.60
2023-01-29T15:50:57.166Z,9.57
2023-01-29T15:53:36.824Z,9.52
2023-01-29T15:56:12.989Z,9.43
2023-01-29T15:58:43.996Z,9.33
2023-01-29T16:01:17.618Z,9.29
2023-01-29T16:03:51.229Z,9.35
2023-01-29T16:06:22.647Z,9.27
2023-01-29T16:08:55.235Z,9.24
2023-01-29T16:11:23.185Z,9.22
2023-01-29T16:13:56.745Z,9.14
2023-01-29T16:16:26.555Z,9.20
2023-01-29T16:19:00.484Z,9.08
2023-01-29T16:21:39.105Z,9.09
2023-01-29T16:24:11.624Z,9.07
2023-01-29T16:26:46.279Z,9.05
2023-01-29T16:29:23.004Z,8.90
2023-01-29T16:31:56.243Z,8.96
2023-01-29T16:34:30.934Z,8.99
2023-01-29T16:37:02.209Z,8.90
2023-01-29T16:39:37.365Z,8.86
2023-01-29T16:42:27.746Z,8.83
2023-01-29T16:45:02.025Z,8.73
2023-01-29T16:48:05.903Z,8.68
2023-01-29T16:50:53.893Z,8.76
2023-01-29T16:53:23.823Z,8.72
2023-01-29T16:55:57.324Z,8.67
2023-01-29T16:58:29.644Z,8.64
2023-01-29T17:01:02.729Z,8.58
2023-01-29T17:03:37.842Z,8.60
2023-01-29T17:06:13.206Z,8.56
2023-01-29T17:08:44.823Z,8.53
2023-01-29T17:11:30.160Z,8.49
2023-01-29T17:13:59.384Z,8.46
2023-01-29T17:16:33.798Z,8.48
2023-01-29T17:19:13.563Z,8.51
2023-01-29T17:21:45.409Z,8.47
2023-01-29T17:24:14.484Z,8.41
2023-01-29T17:26:49.660Z,8.39
2023-01-29T17:29:25.303Z,8.38
2023-01-29T17:31:52.523Z,8.37
2023-01-29T17:34:19.684Z,8.32
2023-01-29T17:36:46.907Z,8.27
2023-01-29T17:39:20.851Z,8.33
2023-01-29T17:42:03.208Z,8.26
2023-01-29T17:44:30.424Z,8.23
2023-01-29T17:46:57.625Z,8.28
2023-01-29T17:49:29.846Z,8.28
2023-01-29T17:51:59.087Z,8.26
2023-01-29T17:54:27.670Z,8.23
2023-01-29T17:57:00.706Z,8.18
2023-01-29T17:59:34.383Z,8.14
2023-01-29T18:02:02.004Z,8.10
2023-01-29T18:04:29.288Z,8.06
2023-01-29T18:06:58.864Z,8.05
2023-01-29T18:09:29.049Z,7.98
2023-01-29T18:11:58.408Z,7.93
2023-01-29T18:14:25.625Z,7.90
2023-01-29T18:16:52.865Z,7.86
2023-01-29T18:19:22.692Z,7.84
2023-01-29T18:21:50.558Z,7.79
2023-01-29T18:24:18.645Z,7.80
2023-01-29T18:26:45.920Z,7.77
2023-01-29T18:29:14.685Z,7.78
2023-01-29T18:31:42.098Z,7.78
2023-01-29T18:34:09.326Z,7.75
2023-01-29T18:36:36.466Z,7.70
2023-01-29T18:39:03.823Z,7.72
2023-01-29T18:41:30.966Z,7.68
2023-01-29T18:43:58.144Z,7.68
2023-01-29T18:46:26.764Z,7.67
2023-01-29T18:48:53.934Z,7.62
2023-01-29T18:51:21.104Z,7.59
2023-01-29T18:53:50.271Z,7.55
2023-01-29T18:56:18.236Z,7.56
2023-01-29T18:58:45.524Z,7.62
2023-01-29T19:01:19.772Z,7.58
2023-01-29T19:03:48.724Z,7.57
2023-01-29T19:06:15.962Z,7.54
2023-01-29T19:08:43.264Z,7.53
2023-01-29T19:11:11.519Z,7.53
2023-01-29T19:13:38.736Z,7.52
2023-01-29T19:16:08.167Z,7.43
2023-01-29T19:18:35.410Z,7.46
2023-01-29T19:21:09.727Z,7.45
2023-01-29T19:23:37.395Z,7.41
2023-01-29T19:26:05.125Z,7.48
2023-01-29T19:28:33.307Z,7.42
2023-01-29T19:31:01.479Z,7.36
2023-01-29T19:33:29.349Z,7.33
2023-01-29T19:35:56.995Z,7.31
2023-01-29T19:38:26.590Z,7.36
2023-01-29T19:40:53.824Z,7.34
2023-01-29T19:43:21.613Z,7.31
2023-01-29T19:45:50.307Z,7.34
2023-01-29T19:48:18.095Z,7.30
2023-01-29T19:50:51.390Z,7.28
2023-01-29T19:53:18.510Z,9.90
2023-01-29T19:55:47.167Z,11.95
2023-01-29T19:58:14.691Z,13.12
2023-01-29T20:00:41.868Z,13.82
2023-01-29T20:03:09.029Z,12.55
2023-01-29T20:05:36.687Z,11.35
2023-01-29T20:08:04.260Z,10.57
2023-01-29T20:10:31.570Z,9.87
2023-01-29T20:13:00.367Z,9.32
2023-01-29T20:15:27.584Z,8.89
2023-01-29T20:17:54.686Z,8.55
2023-01-29T20:20:21.910Z,8.29
2023-01-29T20:22:51.498Z,8.01
2023-01-29T20:25:19.985Z,7.79
2023-01-29T20:27:47.525Z,7.60
2023-01-29T20:30:16.958Z,7.45
2023-01-29T20:32:44.286Z,7.40
2023-01-29T20:35:11.507Z,7.27
2023-01-29T20:37:38.708Z,7.21
2023-01-29T20:40:07.284Z,7.15
2023-01-29T20:42:34.471Z,7.09
2023-01-29T20:45:01.808Z,7.06
2023-01-29T20:47:30.406Z,7.05
2023-01-29T20:49:58.165Z,7.02
2023-01-29T20:52:25.486Z,6.96
2023-01-29T20:54:52.807Z,6.92
2023-01-29T20:57:22.049Z,6.91
2023-01-29T20:59:49.368Z,6.89
2023-01-29T21:02:16.729Z,6.84
2023-01-29T21:04:45.324Z,6.85
2023-01-29T21:07:12.745Z,6.82
2023-01-29T21:09:40.141Z,6.76
2023-01-29T21:12:07.545Z,6.73
2023-01-29T21:14:34.931Z,6.69
2023-01-29T21:17:02.608Z,6.70
2023-01-29T21:19:29.745Z,6.68
2023-01-29T21:21:58.585Z,6.51
2023-01-29T21:24:27.336Z,6.56
2023-01-29T21:26:54.746Z,6.56
2023-01-29T21:29:22.575Z,6.52
2023-01-29T21:31:50.202Z,6.54
2023-01-29T21:34:18.325Z,6.58
2023-01-29T21:36:45.984Z,6.60
2023-01-29T21:39:14.744Z,6.60
2023-01-29T21:41:44.265Z,6.58
2023-01-29T21:44:11.712Z,6.54
2023-01-29T21:46:39.480Z,6.54
2023-01-29T21:49:07.474Z,6.44
2023-01-29T21:51:35.626Z,6.35
2023-01-29T21:54:02.743Z,6.26
2023-01-29T21:56:31.369Z,6.26
2023-01-29T21:58:58.543Z,6.17
2023-01-29T22:01:37.831Z,6.16
2023-01-29T22:04:05.944Z,6.23
2023-01-29T22:06:33.204Z,6.16
2023-01-29T22:09:00.383Z,6.15
2023-01-29T22:11:27.803Z,6.14
2023-01-29T22:13:56.966Z,6.10
2023-01-29T22:16:24.186Z,6.06
2023-01-29T22:18:51.402Z,6.08
2023-01-29T22:21:18.647Z,6.11
2023-01-29T22:23:49.001Z,6.05
2023-01-29T22:26:16.856Z,6.01
2023-01-29T22:28:46.265Z,5.95
2023-01-29T22:31:14.993Z,6.08
2023-01-29T22:33:44.502Z,6.49
2023-01-29T22:36:11.711Z,6.30
2023-01-29T22:38:38.964Z,6.29
2023-01-29T22:41:06.203Z,6.28
2023-01-29T22:43:33.395Z,6.23
2023-01-29T22:46:00.620Z,6.26
2023-01-29T22:48:29.286Z,6.33
2023-01-29T22:50:57.839Z,6.29
2023-01-29T22:53:25.105Z,6.39
2023-01-29T22:55:55.521Z,6.45
2023-01-29T22:58:22.732Z,6.54
2023-01-29T23:00:50.784Z,6.57
2023-01-29T23:03:18.127Z,6.45
2023-01-29T23:05:46.728Z,6.55
2023-01-29T23:08:13.870Z,6.58
2023-01-29T23:10:41.474Z,6.62
2023-01-29T23:13:08.683Z,6.68
2023-01-29T23:15:35.826Z,6.66
2023-01-29T23:18:04.062Z,6.69
2023-01-29T23:20:31.344Z,6.67
2023-01-29T23:23:00.145Z,6.76
2023-01-29T23:25:27.508Z,6.73
2023-01-29T23:27:54.623Z,6.77
2023-01-29T23:30:21.735Z,6.78
2023-01-29T23:32:49.099Z,6.77
2023-01-29T23:35:16.343Z,6.77
2023-01-29T23:37:43.581Z,6.84
2023-01-29T23:40:13.302Z,6.91
2023-01-29T23:42:40.462Z,6.88
2023-01-29T23:45:08.622Z,6.94
2023-01-29T23:47:35.725Z,6.97
2023-01-29T23:50:02.902Z,7.03
2023-01-29T23:52:30.385Z,7.07
2023-01-29T23:54:58.165Z,7.15
2023-01-29T23:57:26.783Z,7.16
2023-01-29T23:59:53.943Z,7.20
